sensor_id;sensor_type;location;lat;lon;timestamp;pressure;altitude;pressure_sealevel;temperature;humidity
80186;BME280;69904;52.122;5.422;2023-07-16T00:01:37;100823.38;;;17.95;58.10
80186;BME280;69904;52.122;5.422;2023-07-16T00:04:03;100821.72;;;17.94;57.72
80186;BME280;69904;52.122;5.422;2023-07-16T00:06:30;100829.63;;;17.95;57.95
80186;BME280;69904;52.122;5.422;2023-07-16T00:08:59;100831.56;;;17.95;57.70
80186;BME280;69904;52.122;5.422;2023-07-16T00:11:26;100823.84;;;17.92;57.89
80186;BME280;69904;52.122;5.422;2023-07-16T00:13:52;100826.81;;;17.90;57.53
80186;BME280;69904;52.122;5.422;2023-07-16T00:16:18;100825.97;;;17.90;57.32
80186;BME280;69904;52.122;5.422;2023-07-16T00:18:45;100828.72;;;17.90;57.69
80186;BME280;69904;52.122;5.422;2023-07-16T00:21:12;100824.91;;;17.91;57.50
80186;BME280;69904;52.122;5.422;2023-07-16T00:23:38;100821.63;;;17.89;57.38
80186;BME280;69904;52.122;5.422;2023-07-16T00:26:05;100823.75;;;17.87;57.27
80186;BME280;69904;52.122;5.422;2023-07-16T00:28:31;100825.66;;;17.86;57.18
80186;BME280;69904;52.122;5.422;2023-07-16T00:30:58;100822.09;;;17.86;57.21
80186;BME280;69904;52.122;5.422;2023-07-16T00:33:24;100828.91;;;17.83;57.56
80186;BME280;69904;52.122;5.422;2023-07-16T00:35:51;100828.53;;;17.80;57.50
80186;BME280;69904;52.122;5.422;2023-07-16T00:38:18;100832.59;;;17.77;57.57
80186;BME280;69904;52.122;5.422;2023-07-16T00:40:45;100830.09;;;17.76;57.64
80186;BME280;69904;52.122;5.422;2023-07-16T00:43:12;100834.72;;;17.75;57.87
80186;BME280;69904;52.122;5.422;2023-07-16T00:45:40;100829.19;;;17.70;58.23
80186;BME280;69904;52.122;5.422;2023-07-16T00:48:08;100839.78;;;17.66;57.87
80186;BME280;69904;52.122;5.422;2023-07-16T00:50:36;100838.34;;;17.64;58.07
80186;BME280;69904;52.122;5.422;2023-07-16T00:53:06;100841.91;;;17.64;58.15
80186;BME280;69904;52.122;5.422;2023-07-16T00:55:34;100845.13;;;17.61;58.25
80186;BME280;69904;52.122;5.422;2023-07-16T00:58:04;100848.09;;;17.60;58.46
80186;BME280;69904;52.122;5.422;2023-07-16T01:00:35;100846.66;;;17.57;58.54
80186;BME280;69904;52.122;5.422;2023-07-16T01:03:03;100846.06;;;17.55;58.38
80186;BME280;69904;52.122;5.422;2023-07-16T01:05:34;100852.00;;;17.52;58.71
80186;BME280;69904;52.122;5.422;2023-07-16T01:08:06;100844.91;;;17.51;58.98
80186;BME280;69904;52.122;5.422;2023-07-16T01:10:37;100852.25;;;17.51;58.82
80186;BME280;69904;52.122;5.422;2023-07-16T01:13:04;100847.28;;;17.48;58.93
80186;BME280;69904;52.122;5.422;2023-07-16T01:15:31;100841.81;;;17.48;59.03
80186;BME280;69904;52.122;5.422;2023-07-16T01:17:57;100833.91;;;17.46;58.92
80186;BME280;69904;52.122;5.422;2023-07-16T01:20:24;100839.81;;;17.43;58.95
80186;BME280;69904;52.122;5.422;2023-07-16T01:30:44;100835.69;;;17.41;59.51
80186;BME280;69904;52.122;5.422;2023-07-16T01:33:13;100832.13;;;17.40;59.60
80186;BME280;69904;52.122;5.422;2023-07-16T01:35:42;100841.38;;;17.39;59.39
80186;BME280;69904;52.122;5.422;2023-07-16T01:38:10;100829.03;;;17.37;59.44
80186;BME280;69904;52.122;5.422;2023-07-16T01:40:37;100828.47;;;17.35;59.92
80186;BME280;69904;52.122;5.422;2023-07-16T01:43:03;100829.31;;;17.35;59.56
80186;BME280;69904;52.122;5.422;2023-07-16T01:45:30;100835.00;;;17.34;59.90
80186;BME280;69904;52.122;5.422;2023-07-16T01:50:26;100834.41;;;17.32;59.80
80186;BME280;69904;52.122;5.422;2023-07-16T01:52:52;100843.06;;;17.29;60.31
80186;BME280;69904;52.122;5.422;2023-07-16T01:55:19;100829.09;;;17.25;60.15
80186;BME280;69904;52.122;5.422;2023-07-16T01:57:45;100831.22;;;17.23;60.71
80186;BME280;69904;52.122;5.422;2023-07-16T02:00:12;100839.41;;;17.23;61.02
80186;BME280;69904;52.122;5.422;2023-07-16T02:02:38;100838.81;;;17.21;60.55
80186;BME280;69904;52.122;5.422;2023-07-16T02:05:05;100839.91;;;17.20;60.89
80186;BME280;69904;52.122;5.422;2023-07-16T02:07:32;100833.84;;;17.18;60.86
80186;BME280;69904;52.122;5.422;2023-07-16T02:09:58;100835.16;;;17.15;61.01
80186;BME280;69904;52.122;5.422;2023-07-16T02:12:25;100831.13;;;17.18;61.53
80186;BME280;69904;52.122;5.422;2023-07-16T02:14:51;100837.31;;;17.13;61.62
80186;BME280;69904;52.122;5.422;2023-07-16T02:17:18;100839.44;;;17.11;61.79
80186;BME280;69904;52.122;5.422;2023-07-16T02:19:44;100839.44;;;17.11;61.84
80186;BME280;69904;52.122;5.422;2023-07-16T02:22:10;100838.88;;;17.09;61.85
80186;BME280;69904;52.122;5.422;2023-07-16T02:24:37;100835.31;;;17.09;62.38
80186;BME280;69904;52.122;5.422;2023-07-16T02:27:04;100839.34;;;17.06;62.32
80186;BME280;69904;52.122;5.422;2023-07-16T02:29:31;100833.28;;;17.04;62.28
80186;BME280;69904;52.122;5.422;2023-07-16T02:31:58;100832.47;;;17.04;62.42
80186;BME280;69904;52.122;5.422;2023-07-16T02:34:24;100836.28;;;17.03;62.79
80186;BME280;69904;52.122;5.422;2023-07-16T02:36:51;100846.56;;;17.01;62.77
80186;BME280;69904;52.122;5.422;2023-07-16T02:39:17;100846.56;;;17.01;62.26
80186;BME280;69904;52.122;5.422;2023-07-16T02:41:43;100837.00;;;16.98;63.20
80186;BME280;69904;52.122;5.422;2023-07-16T02:44:10;100854.97;;;16.99;62.88
80186;BME280;69904;52.122;5.422;2023-07-16T02:46:36;100838.06;;;16.97;63.01
80186;BME280;69904;52.122;5.422;2023-07-16T02:49:03;100840.56;;;16.99;63.01
80186;BME280;69904;52.122;5.422;2023-07-16T02:51:30;100838.41;;;17.01;63.08
80186;BME280;69904;52.122;5.422;2023-07-16T02:53:57;100847.41;;;17.01;63.20
80186;BME280;69904;52.122;5.422;2023-07-16T02:56:23;100847.63;;;17.00;63.34
80186;BME280;69904;52.122;5.422;2023-07-16T02:58:50;100849.78;;;16.98;63.51
80186;BME280;69904;52.122;5.422;2023-07-16T03:01:16;100842.06;;;16.95;63.31
80186;BME280;69904;52.122;5.422;2023-07-16T03:03:43;100845.88;;;16.94;63.42
80186;BME280;69904;52.122;5.422;2023-07-16T03:06:09;100848.25;;;16.90;63.27
80186;BME280;69904;52.122;5.422;2023-07-16T03:08:36;100853.69;;;16.90;63.72
80186;BME280;69904;52.122;5.422;2023-07-16T03:11:02;100855.03;;;16.88;63.36
80186;BME280;69904;52.122;5.422;2023-07-16T03:13:29;100849.19;;;16.84;63.80
80186;BME280;69904;52.122;5.422;2023-07-16T03:15:55;100848.63;;;16.82;63.64
80186;BME280;69904;52.122;5.422;2023-07-16T03:18:22;100843.19;;;16.82;63.97
80186;BME280;69904;52.122;5.422;2023-07-16T03:20:48;100851.59;;;16.80;63.99
80186;BME280;69904;52.122;5.422;2023-07-16T03:23:15;100851.81;;;16.79;63.75
80186;BME280;69904;52.122;5.422;2023-07-16T03:25:41;100852.88;;;16.78;63.67
80186;BME280;69904;52.122;5.422;2023-07-16T03:28:08;100849.09;;;16.79;64.14
80186;BME280;69904;52.122;5.422;2023-07-16T03:30:34;100852.88;;;16.78;63.75
80186;BME280;69904;52.122;5.422;2023-07-16T03:33:01;100851.47;;;16.75;64.05
80186;BME280;69904;52.122;5.422;2023-07-16T03:35:27;100853.38;;;16.75;64.01
80186;BME280;69904;52.122;5.422;2023-07-16T03:37:54;100851.69;;;16.74;64.04
80186;BME280;69904;52.122;5.422;2023-07-16T03:40:24;100858.81;;;16.75;64.06
80186;BME280;69904;52.122;5.422;2023-07-16T03:42:51;100856.09;;;16.75;64.05
80186;BME280;69904;52.122;5.422;2023-07-16T03:45:18;100866.38;;;16.73;64.52
80186;BME280;69904;52.122;5.422;2023-07-16T03:47:45;100873.63;;;16.67;64.63
80186;BME280;69904;52.122;5.422;2023-07-16T03:50:12;100877.66;;;16.65;64.72
80186;BME280;69904;52.122;5.422;2023-07-16T03:52:38;100873.75;;;16.61;65.49
80186;BME280;69904;52.122;5.422;2023-07-16T03:55:05;100881.31;;;16.59;64.89
80186;BME280;69904;52.122;5.422;2023-07-16T03:57:33;100876.47;;;16.61;64.66
80186;BME280;69904;52.122;5.422;2023-07-16T03:59:59;100881.31;;;16.59;64.84
80186;BME280;69904;52.122;5.422;2023-07-16T04:02:26;100891.75;;;16.62;64.50
80186;BME280;69904;52.122;5.422;2023-07-16T04:04:52;100887.38;;;16.61;64.65
80186;BME280;69904;52.122;5.422;2023-07-16T04:07:19;100908.91;;;16.62;64.04
80186;BME280;69904;52.122;5.422;2023-07-16T04:09:45;100887.94;;;16.63;64.50
80186;BME280;69904;52.122;5.422;2023-07-16T04:12:12;100905.13;;;16.63;64.50
80186;BME280;69904;52.122;5.422;2023-07-16T04:14:38;100898.41;;;16.66;64.07
80186;BME280;69904;52.122;5.422;2023-07-16T04:17:05;100892.94;;;16.66;64.17
80186;BME280;69904;52.122;5.422;2023-07-16T04:19:32;100900.53;;;16.64;64.11
80186;BME280;69904;52.122;5.422;2023-07-16T04:21:58;100894.25;;;16.63;64.37
80186;BME280;69904;52.122;5.422;2023-07-16T04:24:25;100905.13;;;16.63;64.47
80186;BME280;69904;52.122;5.422;2023-07-16T04:26:53;100914.97;;;16.64;64.12
80186;BME280;69904;52.122;5.422;2023-07-16T04:29:19;100911.41;;;16.64;64.29
80186;BME280;69904;52.122;5.422;2023-07-16T04:31:46;100916.25;;;16.62;64.51
80186;BME280;69904;52.122;5.422;2023-07-16T04:34:13;100914.63;;;16.61;64.41
80186;BME280;69904;52.122;5.422;2023-07-16T04:36:39;100928.25;;;16.61;64.51
80186;BME280;69904;52.122;5.422;2023-07-16T04:39:05;100923.88;;;16.60;64.29
80186;BME280;69904;52.122;5.422;2023-07-16T04:41:32;100920.31;;;16.59;64.26
80186;BME280;69904;52.122;5.422;2023-07-16T04:43:58;100925.13;;;16.57;64.33
80186;BME280;69904;52.122;5.422;2023-07-16T04:46:25;100924.28;;;16.57;64.10
80186;BME280;69904;52.122;5.422;2023-07-16T04:48:51;100942.53;;;16.56;64.38
80186;BME280;69904;52.122;5.422;2023-07-16T04:51:19;100935.44;;;16.55;63.96
80186;BME280;69904;52.122;5.422;2023-07-16T04:53:46;100926.66;;;16.53;64.29
80186;BME280;69904;52.122;5.422;2023-07-16T04:56:12;100934.84;;;16.53;64.13
80186;BME280;69904;52.122;5.422;2023-07-16T04:58:40;100940.28;;;16.53;64.05
80186;BME280;69904;52.122;5.422;2023-07-16T05:01:07;100937.56;;;16.53;64.04
80186;BME280;69904;52.122;5.422;2023-07-16T05:03:33;100946.56;;;16.54;64.11
80186;BME280;69904;52.122;5.422;2023-07-16T05:06:00;100935.44;;;16.55;63.75
80186;BME280;69904;52.122;5.422;2023-07-16T05:08:27;100931.41;;;16.58;63.91
80186;BME280;69904;52.122;5.422;2023-07-16T05:10:53;100938.75;;;16.57;64.10
80186;BME280;69904;52.122;5.422;2023-07-16T05:13:20;100949.22;;;16.60;63.90
80186;BME280;69904;52.122;5.422;2023-07-16T05:15:47;100938.31;;;16.60;64.16
80186;BME280;69904;52.122;5.422;2023-07-16T05:18:13;100940.78;;;16.62;63.62
80186;BME280;69904;52.122;5.422;2023-07-16T05:20:40;100937.84;;;16.63;63.53
80186;BME280;69904;52.122;5.422;2023-07-16T05:23:06;100942.84;;;16.66;63.37
80186;BME280;69904;52.122;5.422;2023-07-16T05:25:32;100943.41;;;16.68;63.40
80186;BME280;69904;52.122;5.422;2023-07-16T05:27:59;100949.47;;;16.70;62.67
80186;BME280;69904;52.122;5.422;2023-07-16T05:30:25;100944.84;;;16.71;62.76
80186;BME280;69904;52.122;5.422;2023-07-16T05:32:52;100954.44;;;16.73;63.12
80186;BME280;69904;52.122;5.422;2023-07-16T05:35:18;100963.81;;;16.77;62.43
80186;BME280;69904;52.122;5.422;2023-07-16T05:37:45;100954.34;;;16.80;62.24
80186;BME280;69904;52.122;5.422;2023-07-16T05:40:12;100955.50;;;16.84;62.47
80186;BME280;69904;52.122;5.422;2023-07-16T05:42:38;100968.91;;;16.86;62.34
80186;BME280;69904;52.122;5.422;2023-07-16T05:45:05;100985.06;;;16.87;62.08
80186;BME280;69904;52.122;5.422;2023-07-16T05:47:31;100983.97;;;16.88;62.40
80186;BME280;69904;52.122;5.422;2023-07-16T05:49:58;100980.28;;;16.94;62.00
80186;BME280;69904;52.122;5.422;2023-07-16T05:52:25;100994.53;;;16.96;61.99
80186;BME280;69904;52.122;5.422;2023-07-16T05:54:52;100989.44;;;17.00;61.81
80186;BME280;69904;52.122;5.422;2023-07-16T05:57:18;100998.22;;;17.02;61.55
80186;BME280;69904;52.122;5.422;2023-07-16T05:59:45;100991.44;;;17.04;61.55
80186;BME280;69904;52.122;5.422;2023-07-16T06:02:11;101007.34;;;17.07;61.71
80186;BME280;69904;52.122;5.422;2023-07-16T06:04:38;100995.38;;;17.08;61.64
80186;BME280;69904;52.122;5.422;2023-07-16T06:07:04;100997.16;;;17.14;61.41
80186;BME280;69904;52.122;5.422;2023-07-16T06:09:31;100992.41;;;17.21;61.80
80186;BME280;69904;52.122;5.422;2023-07-16T06:11:57;100995.50;;;17.25;61.30
80186;BME280;69904;52.122;5.422;2023-07-16T06:14:24;101002.97;;;17.30;61.58
80186;BME280;69904;52.122;5.422;2023-07-16T06:16:50;101005.44;;;17.31;61.01
80186;BME280;69904;52.122;5.422;2023-07-16T06:19:17;101006.28;;;17.32;60.76
80186;BME280;69904;52.122;5.422;2023-07-16T06:21:43;101007.22;;;17.37;61.00
80186;BME280;69904;52.122;5.422;2023-07-16T06:24:10;101005.94;;;17.40;60.62
80186;BME280;69904;52.122;5.422;2023-07-16T06:26:40;101010.31;;;17.41;61.08
80186;BME280;69904;52.122;5.422;2023-07-16T06:29:06;101007.72;;;17.46;60.29
80186;BME280;69904;52.122;5.422;2023-07-16T06:31:33;101016.84;;;17.51;60.70
80186;BME280;69904;52.122;5.422;2023-07-16T06:34:00;101005.31;;;17.49;60.53
80186;BME280;69904;52.122;5.422;2023-07-16T06:36:27;101014.09;;;17.51;60.68
80186;BME280;69904;52.122;5.422;2023-07-16T06:38:53;101025.13;;;17.56;60.50
80186;BME280;69904;52.122;5.422;2023-07-16T06:41:19;101016.25;;;17.61;60.36
80186;BME280;69904;52.122;5.422;2023-07-16T06:43:46;101041.16;;;17.64;60.65
80186;BME280;69904;52.122;5.422;2023-07-16T06:46:12;101018.50;;;17.64;60.75
80186;BME280;69904;52.122;5.422;2023-07-16T06:48:39;101011.75;;;17.66;60.58
80186;BME280;69904;52.122;5.422;2023-07-16T06:51:06;101011.63;;;17.73;60.36
80186;BME280;69904;52.122;5.422;2023-07-16T06:53:33;101004.84;;;17.76;59.77
80186;BME280;69904;52.122;5.422;2023-07-16T06:55:59;101025.00;;;17.75;60.06
80186;BME280;69904;52.122;5.422;2023-07-16T06:58:32;101023.22;;;17.80;60.33
80186;BME280;69904;52.122;5.422;2023-07-16T07:00:59;101030.69;;;17.85;59.89
80186;BME280;69904;52.122;5.422;2023-07-16T07:03:26;101029.16;;;17.89;59.92
80186;BME280;69904;52.122;5.422;2023-07-16T07:05:52;101033.88;;;17.93;59.59
80186;BME280;69904;52.122;5.422;2023-07-16T07:08:19;101046.47;;;17.94;59.93
80186;BME280;69904;52.122;5.422;2023-07-16T07:10:48;101042.19;;;17.98;59.78
80186;BME280;69904;52.122;5.422;2023-07-16T07:13:14;101049.41;;;18.04;60.02
80186;BME280;69904;52.122;5.422;2023-07-16T07:15:41;101041.88;;;18.12;60.04
80186;BME280;69904;52.122;5.422;2023-07-16T07:18:08;101043.31;;;18.14;59.93
80186;BME280;69904;52.122;5.422;2023-07-16T07:20:34;101062.69;;;18.13;59.78
80186;BME280;69904;52.122;5.422;2023-07-16T07:23:01;101051.75;;;18.13;59.83
80186;BME280;69904;52.122;5.422;2023-07-16T07:25:29;101054.25;;;18.14;59.67
80186;BME280;69904;52.122;5.422;2023-07-16T07:27:56;101058.00;;;18.25;59.85
80186;BME280;69904;52.122;5.422;2023-07-16T07:30:22;101068.22;;;18.29;59.64
80186;BME280;69904;52.122;5.422;2023-07-16T07:32:49;101077.00;;;18.31;59.24
80186;BME280;69904;52.122;5.422;2023-07-16T07:35:15;101056.69;;;18.27;59.69
80186;BME280;69904;52.122;5.422;2023-07-16T07:37:42;101073.53;;;18.36;59.78
80186;BME280;69904;52.122;5.422;2023-07-16T07:40:08;101067.00;;;18.37;59.52
80186;BME280;69904;52.122;5.422;2023-07-16T07:42:35;101067.00;;;18.37;59.52
80186;BME280;69904;52.122;5.422;2023-07-16T07:45:02;101069.88;;;18.30;59.44
80186;BME280;69904;52.122;5.422;2023-07-16T07:47:30;101070.81;;;18.36;59.94
80186;BME280;69904;52.122;5.422;2023-07-16T07:49:56;101076.81;;;18.49;59.56
80186;BME280;69904;52.122;5.422;2023-07-16T07:52:23;101103.91;;;18.51;59.03
80186;BME280;69904;52.122;5.422;2023-07-16T07:54:50;101087.06;;;18.42;59.70
80186;BME280;69904;52.122;5.422;2023-07-16T07:57:16;101090.28;;;18.39;59.47
80186;BME280;69904;52.122;5.422;2023-07-16T07:59:44;101097.31;;;18.35;59.20
80186;BME280;69904;52.122;5.422;2023-07-16T08:02:10;101095.78;;;18.28;59.90
80186;BME280;69904;52.122;5.422;2023-07-16T08:04:37;101113.94;;;18.34;59.95
80186;BME280;69904;52.122;5.422;2023-07-16T08:07:04;101092.81;;;18.29;60.27
80186;BME280;69904;52.122;5.422;2023-07-16T08:09:30;101097.78;;;18.32;59.97
80186;BME280;69904;52.122;5.422;2023-07-16T08:11:57;101103.94;;;18.39;60.50
80186;BME280;69904;52.122;5.422;2023-07-16T08:14:23;101106.03;;;18.49;60.00
80186;BME280;69904;52.122;5.422;2023-07-16T08:16:49;101107.69;;;18.50;59.94
80186;BME280;69904;52.122;5.422;2023-07-16T08:19:16;101121.50;;;18.55;60.15
80186;BME280;69904;52.122;5.422;2023-07-16T08:21:43;101103.31;;;18.49;60.47
80186;BME280;69904;52.122;5.422;2023-07-16T08:24:10;101116.03;;;18.55;60.34
80186;BME280;69904;52.122;5.422;2023-07-16T08:26:36;101136.34;;;18.59;60.03
80186;BME280;69904;52.122;5.422;2023-07-16T08:29:03;101118.31;;;18.58;59.82
80186;BME280;69904;52.122;5.422;2023-07-16T08:31:30;101126.00;;;18.61;60.43
80186;BME280;69904;52.122;5.422;2023-07-16T08:33:57;101133.28;;;18.56;59.75
80186;BME280;69904;52.122;5.422;2023-07-16T08:36:25;101117.81;;;18.49;59.68
80186;BME280;69904;52.122;5.422;2023-07-16T08:38:52;101120.81;;;18.48;60.03
80186;BME280;69904;52.122;5.422;2023-07-16T08:41:18;101124.34;;;18.48;60.51
80186;BME280;69904;52.122;5.422;2023-07-16T08:43:45;101121.50;;;18.55;60.46
80186;BME280;69904;52.122;5.422;2023-07-16T08:46:12;101145.50;;;18.53;60.35
80186;BME280;69904;52.122;5.422;2023-07-16T08:48:40;101138.16;;;18.42;60.39
80186;BME280;69904;52.122;5.422;2023-07-16T08:51:06;101135.66;;;18.40;60.23
80186;BME280;69904;52.122;5.422;2023-07-16T08:53:33;101138.16;;;18.42;60.46
80186;BME280;69904;52.122;5.422;2023-07-16T08:56:00;101137.19;;;18.48;60.64
80186;BME280;69904;52.122;5.422;2023-07-16T08:58:29;101137.09;;;18.43;60.70
80186;BME280;69904;52.122;5.422;2023-07-16T09:00:57;101140.06;;;18.41;60.65
80186;BME280;69904;52.122;5.422;2023-07-16T09:03:24;101144.91;;;18.51;61.02
80186;BME280;69904;52.122;5.422;2023-07-16T09:05:51;101153.34;;;18.61;61.19
80186;BME280;69904;52.122;5.422;2023-07-16T09:08:17;101149.88;;;18.66;61.15
80186;BME280;69904;52.122;5.422;2023-07-16T09:10:44;101155.84;;;18.91;60.49
80186;BME280;69904;52.122;5.422;2023-07-16T09:13:10;101160.44;;;19.19;59.92
80186;BME280;69904;52.122;5.422;2023-07-16T09:15:37;101169.84;;;19.23;59.15
80186;BME280;69904;52.122;5.422;2023-07-16T09:18:04;101174.19;;;19.07;58.38
80186;BME280;69904;52.122;5.422;2023-07-16T09:20:31;101156.75;;;18.97;58.81
80186;BME280;69904;52.122;5.422;2023-07-16T09:22:58;101166.78;;;18.91;59.35
80186;BME280;69904;52.122;5.422;2023-07-16T09:25:29;101167.50;;;18.86;59.46
80186;BME280;69904;52.122;5.422;2023-07-16T09:27:58;101182.75;;;18.82;59.77
80186;BME280;69904;52.122;5.422;2023-07-16T09:30:30;101181.44;;;18.85;59.29
80186;BME280;69904;52.122;5.422;2023-07-16T09:32:57;101190.69;;;18.96;59.47
80186;BME280;69904;52.122;5.422;2023-07-16T09:35:24;101173.53;;;19.00;58.73
80186;BME280;69904;52.122;5.422;2023-07-16T09:37:51;101180.94;;;19.16;58.58
80186;BME280;69904;52.122;5.422;2023-07-16T09:40:18;101172.41;;;19.29;58.76
80186;BME280;69904;52.122;5.422;2023-07-16T09:42:44;101183.41;;;19.63;58.05
80186;BME280;69904;52.122;5.422;2023-07-16T09:45:18;101175.28;;;19.51;57.56
80186;BME280;69904;52.122;5.422;2023-07-16T09:47:45;101197.94;;;19.47;57.89
80186;BME280;69904;52.122;5.422;2023-07-16T09:50:12;101202.69;;;19.40;57.66
80186;BME280;69904;52.122;5.422;2023-07-16T09:52:39;101196.06;;;19.35;57.67
80186;BME280;69904;52.122;5.422;2023-07-16T09:55:09;101191.66;;;19.34;58.25
80186;BME280;69904;52.122;5.422;2023-07-16T09:57:38;101191.16;;;19.38;58.25
80186;BME280;69904;52.122;5.422;2023-07-16T10:00:12;101198.31;;;19.39;58.13
80186;BME280;69904;52.122;5.422;2023-07-16T10:02:41;101191.91;;;19.33;58.75
80186;BME280;69904;52.122;5.422;2023-07-16T10:05:15;101198.03;;;19.40;58.59
80186;BME280;69904;52.122;5.422;2023-07-16T10:07:42;101208.06;;;19.34;59.02
80186;BME280;69904;52.122;5.422;2023-07-16T10:10:10;101196.06;;;19.35;58.35
80186;BME280;69904;52.122;5.422;2023-07-16T10:12:37;101209.66;;;19.30;59.08
80186;BME280;69904;52.122;5.422;2023-07-16T10:15:05;101218.53;;;19.38;58.55
80186;BME280;69904;52.122;5.422;2023-07-16T10:17:32;101220.00;;;19.57;57.95
80186;BME280;69904;52.122;5.422;2023-07-16T10:20:07;101214.03;;;19.76;58.05
80186;BME280;69904;52.122;5.422;2023-07-16T10:22:38;101232.03;;;20.06;56.45
80186;BME280;69904;52.122;5.422;2023-07-16T10:25:29;101229.75;;;19.98;56.26
80186;BME280;69904;52.122;5.422;2023-07-16T10:27:56;101220.59;;;19.75;56.21
80186;BME280;69904;52.122;5.422;2023-07-16T10:30:22;101223.41;;;19.64;56.78
80186;BME280;69904;52.122;5.422;2023-07-16T10:32:51;101226.22;;;19.52;57.62
80186;BME280;69904;52.122;5.422;2023-07-16T10:35:19;101228.28;;;19.45;58.26
80186;BME280;69904;52.122;5.422;2023-07-16T10:37:45;101248.97;;;19.41;57.96
80186;BME280;69904;52.122;5.422;2023-07-16T10:40:12;101236.38;;;19.40;58.21
80186;BME280;69904;52.122;5.422;2023-07-16T10:42:43;101231.50;;;19.42;58.22
80186;BME280;69904;52.122;5.422;2023-07-16T10:45:10;101235.50;;;19.51;58.62
80186;BME280;69904;52.122;5.422;2023-07-16T10:47:38;101239.69;;;19.54;57.58
80186;BME280;69904;52.122;5.422;2023-07-16T10:50:07;101236.28;;;19.63;57.91
80186;BME280;69904;52.122;5.422;2023-07-16T10:52:36;101246.72;;;19.66;57.54
80186;BME280;69904;52.122;5.422;2023-07-16T10:55:06;101246.88;;;19.76;57.88
80186;BME280;69904;52.122;5.422;2023-07-16T10:57:32;101254.38;;;19.81;57.12
80186;BME280;69904;52.122;5.422;2023-07-16T10:59:59;101245.50;;;19.74;57.96
80186;BME280;69904;52.122;5.422;2023-07-16T11:02:26;101260.78;;;19.70;57.30
80186;BME280;69904;52.122;5.422;2023-07-16T11:04:54;101258.69;;;19.77;57.76
80186;BME280;69904;52.122;5.422;2023-07-16T11:07:20;101258.69;;;19.77;57.48
80186;BME280;69904;52.122;5.422;2023-07-16T11:09:50;101262.19;;;19.89;57.73
80186;BME280;69904;52.122;5.422;2023-07-16T11:12:19;101272.16;;;19.95;57.71
80186;BME280;69904;52.122;5.422;2023-07-16T11:14:47;101258.03;;;19.87;57.74
80186;BME280;69904;52.122;5.422;2023-07-16T11:17:14;101264.53;;;19.97;57.88
80186;BME280;69904;52.122;5.422;2023-07-16T11:19:45;101266.34;;;19.92;57.87
80186;BME280;69904;52.122;5.422;2023-07-16T11:22:13;101264.59;;;19.86;58.26
80186;BME280;69904;52.122;5.422;2023-07-16T11:24:46;101274.78;;;19.73;58.09
80186;BME280;69904;52.122;5.422;2023-07-16T11:27:17;101279.38;;;19.85;58.73
80186;BME280;69904;52.122;5.422;2023-07-16T11:34:57;101279.28;;;19.80;58.08
80186;BME280;69904;52.122;5.422;2023-07-16T11:37:25;101289.25;;;19.86;58.01
80186;BME280;69904;52.122;5.422;2023-07-16T11:40:07;101282.41;;;19.71;59.04
80186;BME280;69904;52.122;5.422;2023-07-16T11:42:37;101277.31;;;19.92;59.20
80186;BME280;69904;52.122;5.422;2023-07-16T11:45:05;101287.84;;;20.16;57.37
80186;BME280;69904;52.122;5.422;2023-07-16T11:47:31;101289.81;;;20.21;56.80
80186;BME280;69904;52.122;5.422;2023-07-16T11:49:58;101285.78;;;20.24;56.44
80186;BME280;69904;52.122;5.422;2023-07-16T11:52:27;101300.03;;;20.26;56.13
80186;BME280;69904;52.122;5.422;2023-07-16T11:54:55;101304.06;;;20.35;56.27
80186;BME280;69904;52.122;5.422;2023-07-16T11:57:22;101341.25;;;20.47;55.36
80186;BME280;69904;52.122;5.422;2023-07-16T11:59:49;101306.13;;;20.44;53.90
80186;BME280;69904;52.122;5.422;2023-07-16T12:02:15;101304.91;;;20.57;52.96
80186;BME280;69904;52.122;5.422;2023-07-16T12:04:42;101309.44;;;20.46;53.38
80186;BME280;69904;52.122;5.422;2023-07-16T12:07:08;101310.84;;;20.49;53.31
80186;BME280;69904;52.122;5.422;2023-07-16T12:09:35;101312.00;;;20.36;54.18
80186;BME280;69904;52.122;5.422;2023-07-16T12:12:01;101332.19;;;20.47;53.21
80186;BME280;69904;52.122;5.422;2023-07-16T12:14:28;101325.63;;;20.48;53.28
80186;BME280;69904;52.122;5.422;2023-07-16T12:16:55;101304.00;;;20.51;54.19
80186;BME280;69904;52.122;5.422;2023-07-16T12:19:22;101311.72;;;20.71;53.53
80186;BME280;69904;52.122;5.422;2023-07-16T12:21:49;101304.53;;;20.87;54.12
80186;BME280;69904;52.122;5.422;2023-07-16T12:24:18;101325.47;;;20.93;53.69
80186;BME280;69904;52.122;5.422;2023-07-16T12:26:45;101341.25;;;20.64;53.73
80186;BME280;69904;52.122;5.422;2023-07-16T12:29:11;101314.25;;;20.56;53.59
80186;BME280;69904;52.122;5.422;2023-07-16T12:31:37;101310.72;;;20.77;54.57
80186;BME280;69904;52.122;5.422;2023-07-16T12:34:04;101324.53;;;21.04;53.00
80186;BME280;69904;52.122;5.422;2023-07-16T12:36:30;101335.72;;;20.81;51.89
80186;BME280;69904;52.122;5.422;2023-07-16T12:38:57;101320.31;;;20.58;53.85
80186;BME280;69904;52.122;5.422;2023-07-16T12:41:23;101311.72;;;20.71;53.73
80186;BME280;69904;52.122;5.422;2023-07-16T12:43:50;101331.56;;;21.00;52.64
80186;BME280;69904;52.122;5.422;2023-07-16T12:46:16;101326.44;;;21.04;52.21
80186;BME280;69904;52.122;5.422;2023-07-16T12:48:43;101341.69;;;21.16;50.53
80186;BME280;69904;52.122;5.422;2023-07-16T12:51:09;101341.34;;;21.13;50.93
80186;BME280;69904;52.122;5.422;2023-07-16T12:53:36;101330.47;;;21.18;50.43
80186;BME280;69904;52.122;5.422;2023-07-16T12:56:02;101323.31;;;21.17;50.93
80186;BME280;69904;52.122;5.422;2023-07-16T12:58:29;101314.88;;;21.01;51.63
80186;BME280;69904;52.122;5.422;2023-07-16T13:00:55;101324.75;;;21.19;52.32
80186;BME280;69904;52.122;5.422;2023-07-16T13:03:22;101321.50;;;21.49;51.68
80186;BME280;69904;52.122;5.422;2023-07-16T13:05:48;101345.69;;;21.74;50.23